sensor_id;sensor_type;location;lat;lon;timestamp;P1;durP1;ratioP1;P2;durP2;ratioP2
78160;SDS011;67404;49.896;9.268;2023-01-29T09:36:09;4.92;;;2.55;;
78160;SDS011;67404;49.896;9.268;2023-01-29T09:38:37;3.98;;;2.45;;
78160;SDS011;67404;49.896;9.268;2023-01-29T09:44:04;4.10;;;2.20;;
78160;SDS011;67404;49.896;9.268;2023-01-29T09:51:55;4.20;;;2.90;;
78160;SDS011;67404;49.896;9.268;2023-01-29T09:54:24;5.12;;;2.75;;
78160;SDS011;67404;49.896;9.268;2023-01-29T09:56:54;4.80;;;2.80;;
78160;SDS011;67404;49.896;9.268;2023-01-29T10:47:21;8.55;;;4.83;;
78160;SDS011;67404;49.896;9.268;2023-01-29T11:00:37;10.18;;;5.05;;
78160;SDS011;67404;49.896;9.268;2023-01-29T11:03:11;9.55;;;5.10;;
78160;SDS011;67404;49.896;9.268;2023-01-29T11:06:03;9.73;;;5.37;;
78160;SDS011;67404;49.896;9.268;2023-01-29T11:11:19;9.40;;;4.65;;
78160;SDS011;67404;49.896;9.268;2023-01-29T11:13:56;10.28;;;4.67;;
78160;SDS011;67404;49.896;9.268;2023-01-29T11:18:53;9.23;;;4.92;;
78160;SDS011;67404;49.896;9.268;2023-01-29T11:21:23;9.63;;;5.05;;
78160;SDS011;67404;49.896;9.268;2023-01-29T11:24:05;11.20;;;5.42;;
78160;SDS011;67404;49.896;9.268;2023-01-29T11:26:35;11.20;;;5.30;;
78160;SDS011;67404;49.896;9.268;2023-01-29T11:29:07;11.90;;;5.42;;
78160;SDS011;67404;49.896;9.268;2023-01-29T11:31:52;9.35;;;5.40;;
78160;SDS011;67404;49.896;9.268;2023-01-29T11:34:21;12.33;;;5.92;;
78160;SDS011;67404;49.896;9.268;2023-01-29T11:37:04;9.73;;;4.85;;
78160;SDS011;67404;49.896;9.268;2023-01-29T11:41:58;13.45;;;5.72;;
78160;SDS011;67404;49.896;9.268;2023-01-29T11:47:07;10.80;;;5.10;;
78160;SDS011;67404;49.896;9.268;2023-01-29T11:49:47;11.75;;;5.55;;
78160;SDS011;67404;49.896;9.268;2023-01-29T11:52:18;16.70;;;7.58;;
78160;SDS011;67404;49.896;9.268;2023-01-29T11:57:26;12.88;;;6.25;;
78160;SDS011;67404;49.896;9.268;2023-01-29T12:02:36;13.53;;;5.80;;
78160;SDS011;67404;49.896;9.268;2023-01-29T12:13:04;10.78;;;5.47;;
78160;SDS011;67404;49.896;9.268;2023-01-29T12:21:00;13.40;;;5.25;;
78160;SDS011;67404;49.896;9.268;2023-01-29T12:23:38;12.90;;;5.55;;
78160;SDS011;67404;49.896;9.268;2023-01-29T12:28:58;11.15;;;5.97;;
78160;SDS011;67404;49.896;9.268;2023-01-29T12:39:53;12.00;;;5.77;;
78160;SDS011;67404;49.896;9.268;2023-01-29T12:42:21;13.30;;;6.28;;
78160;SDS011;67404;49.896;9.268;2023-01-29T12:44:54;12.55;;;8.03;;
78160;SDS011;67404;49.896;9.268;2023-01-29T12:50:01;10.53;;;5.78;;
78160;SDS011;67404;49.896;9.268;2023-01-29T12:57:44;10.88;;;5.40;;
78160;SDS011;67404;49.896;9.268;2023-01-29T13:00:20;12.63;;;6.05;;
78160;SDS011;67404;49.896;9.268;2023-01-29T13:05:28;10.18;;;4.85;;
78160;SDS011;67404;49.896;9.268;2023-01-29T13:10:31;12.78;;;5.40;;
78160;SDS011;67404;49.896;9.268;2023-01-29T13:13:10;10.63;;;5.47;;
78160;SDS011;67404;49.896;9.268;2023-01-29T13:15:35;10.70;;;5.45;;
78160;SDS011;67404;49.896;9.268;2023-01-29T13:23:16;11.22;;;5.17;;
78160;SDS011;67404;49.896;9.268;2023-01-29T13:26:01;14.85;;;6.70;;
78160;SDS011;67404;49.896;9.268;2023-01-29T13:28:30;13.55;;;6.35;;
78160;SDS011;67404;49.896;9.268;2023-01-29T13:34:01;13.30;;;6.28;;
78160;SDS011;67404;49.896;9.268;2023-01-29T13:36:45;10.50;;;5.60;;
78160;SDS011;67404;49.896;9.268;2023-01-29T13:44:23;13.78;;;6.08;;
78160;SDS011;67404;49.896;9.268;2023-01-29T13:53:04;15.05;;;6.95;;
78160;SDS011;67404;49.896;9.268;2023-01-29T13:55:04;11.80;;;5.95;;
78160;SDS011;67404;49.896;9.268;2023-01-29T14:10:33;18.42;;;9.38;;
78160;SDS011;67404;49.896;9.268;2023-01-29T14:13:24;25.57;;;12.98;;
78160;SDS011;67404;49.896;9.268;2023-01-29T14:15:32;10.63;;;5.60;;
78160;SDS011;67404;49.896;9.268;2023-01-29T14:20:39;13.00;;;7.08;;
78160;SDS011;67404;49.896;9.268;2023-01-29T14:25:36;11.80;;;6.25;;
78160;SDS011;67404;49.896;9.268;2023-01-29T14:28:12;14.18;;;9.05;;
78160;SDS011;67404;49.896;9.268;2023-01-29T14:33:24;10.68;;;5.15;;
78160;SDS011;67404;49.896;9.268;2023-01-29T14:35:56;11.85;;;6.05;;
78160;SDS011;67404;49.896;9.268;2023-01-29T14:38:25;12.60;;;6.78;;
78160;SDS011;67404;49.896;9.268;2023-01-29T14:41:01;12.73;;;6.17;;
78160;SDS011;67404;49.896;9.268;2023-01-29T14:46:39;13.20;;;6.65;;
78160;SDS011;67404;49.896;9.268;2023-01-29T14:48:47;14.97;;;6.30;;
78160;SDS011;67404;49.896;9.268;2023-01-29T14:51:15;13.45;;;6.92;;
78160;SDS011;67404;49.896;9.268;2023-01-29T14:58:54;11.73;;;6.17;;
78160;SDS011;67404;49.896;9.268;2023-01-29T15:01:39;10.15;;;6.10;;
78160;SDS011;67404;49.896;9.268;2023-01-29T15:07:02;11.63;;;6.53;;
78160;SDS011;67404;49.896;9.268;2023-01-29T15:09:41;14.53;;;7.85;;
78160;SDS011;67404;49.896;9.268;2023-01-29T15:17:27;11.28;;;6.72;;
78160;SDS011;67404;49.896;9.268;2023-01-29T15:22:26;13.13;;;6.80;;
78160;SDS011;67404;49.896;9.268;2023-01-29T15:25:02;11.55;;;5.97;;
78160;SDS011;67404;49.896;9.268;2023-01-29T15:30:02;11.55;;;5.87;;
78160;SDS011;67404;49.896;9.268;2023-01-29T15:32:36;10.18;;;6.00;;
78160;SDS011;67404;49.896;9.268;2023-01-29T15:37:34;9.40;;;4.75;;
78160;SDS011;67404;49.896;9.268;2023-01-29T15:40:03;10.65;;;5.97;;
78160;SDS011;67404;49.896;9.268;2023-01-29T15:42:54;10.68;;;5.87;;
78160;SDS011;67404;49.896;9.268;2023-01-29T15:50:21;12.70;;;6.08;;
78160;SDS011;67404;49.896;9.268;2023-01-29T15:52:50;12.58;;;6.90;;
78160;SDS011;67404;49.896;9.268;2023-01-29T15:55:20;13.00;;;7.47;;
78160;SDS011;67404;49.896;9.268;2023-01-29T15:57:49;13.48;;;7.05;;
78160;SDS011;67404;49.896;9.268;2023-01-29T16:00:23;12.50;;;6.35;;
78160;SDS011;67404;49.896;9.268;2023-01-29T16:02:48;15.20;;;7.67;;
78160;SDS011;67404;49.896;9.268;2023-01-29T16:05:16;11.15;;;6.15;;
78160;SDS011;67404;49.896;9.268;2023-01-29T16:07:47;13.75;;;6.65;;
78160;SDS011;67404;49.896;9.268;2023-01-29T16:10:18;13.25;;;6.90;;
78160;SDS011;67404;49.896;9.268;2023-01-29T16:12:50;11.20;;;6.25;;
78160;SDS011;67404;49.896;9.268;2023-01-29T16:15:53;13.48;;;6.40;;
78160;SDS011;67404;49.896;9.268;2023-01-29T16:25:31;12.07;;;6.28;;
78160;SDS011;67404;49.896;9.268;2023-01-29T16:28:02;11.48;;;6.25;;
78160;SDS011;67404;49.896;9.268;2023-01-29T16:30:32;11.50;;;6.17;;
78160;SDS011;67404;49.896;9.268;2023-01-29T16:33:00;11.80;;;6.08;;
78160;SDS011;67404;49.896;9.268;2023-01-29T16:35:29;14.38;;;6.00;;
78160;SDS011;67404;49.896;9.268;2023-01-29T16:37:59;12.50;;;6.53;;
78160;SDS011;67404;49.896;9.268;2023-01-29T16:40:30;14.15;;;6.53;;
78160;SDS011;67404;49.896;9.268;2023-01-29T16:46:02;12.23;;;7.65;;
78160;SDS011;67404;49.896;9.268;2023-01-29T16:51:03;15.50;;;7.12;;
78160;SDS011;67404;49.896;9.268;2023-01-29T16:56:01;14.80;;;6.42;;
78160;SDS011;67404;49.896;9.268;2023-01-29T16:58:31;15.30;;;7.30;;
78160;SDS011;67404;49.896;9.268;2023-01-29T17:01:00;19.30;;;8.50;;
78160;SDS011;67404;49.896;9.268;2023-01-29T17:03:32;13.30;;;7.15;;
78160;SDS011;67404;49.896;9.268;2023-01-29T17:06:08;15.90;;;7.30;;
78160;SDS011;67404;49.896;9.268;2023-01-29T17:11:05;16.15;;;7.92;;
78160;SDS011;67404;49.896;9.268;2023-01-29T17:13:37;20.90;;;9.03;;
78160;SDS011;67404;49.896;9.268;2023-01-29T17:18:41;15.75;;;8.65;;
78160;SDS011;67404;49.896;9.268;2023-01-29T17:21:08;18.45;;;8.35;;
78160;SDS011;67404;49.896;9.268;2023-01-29T17:23:35;14.68;;;7.67;;
78160;SDS011;67404;49.896;9.268;2023-01-29T17:26:03;20.90;;;9.33;;
78160;SDS011;67404;49.896;9.268;2023-01-29T17:28:32;16.42;;;8.18;;
78160;SDS011;67404;49.896;9.268;2023-01-29T17:31:00;18.98;;;8.18;;
78160;SDS011;67404;49.896;9.268;2023-01-29T17:33:27;17.87;;;8.68;;
78160;SDS011;67404;49.896;9.268;2023-01-29T17:35:54;13.55;;;6.95;;
78160;SDS011;67404;49.896;9.268;2023-01-29T17:38:22;12.63;;;7.03;;
78160;SDS011;67404;49.896;9.268;2023-01-29T17:40:54;15.35;;;7.17;;
78160;SDS011;67404;49.896;9.268;2023-01-29T17:43:32;19.70;;;9.10;;
78160;SDS011;67404;49.896;9.268;2023-01-29T17:46:00;25.40;;;12.53;;
78160;SDS011;67404;49.896;9.268;2023-01-29T17:48:28;22.67;;;10.78;;
78160;SDS011;67404;49.896;9.268;2023-01-29T17:51:00;23.73;;;11.65;;
78160;SDS011;67404;49.896;9.268;2023-01-29T17:53:29;18.23;;;9.38;;
78160;SDS011;67404;49.896;9.268;2023-01-29T17:55:57;17.70;;;8.60;;
78160;SDS011;67404;49.896;9.268;2023-01-29T17:58:25;17.73;;;8.23;;
78160;SDS011;67404;49.896;9.268;2023-01-29T18:00:53;15.98;;;8.05;;
78160;SDS011;67404;49.896;9.268;2023-01-29T18:03:20;14.28;;;7.15;;
78160;SDS011;67404;49.896;9.268;2023-01-29T18:05:48;13.78;;;7.55;;
78160;SDS011;67404;49.896;9.268;2023-01-29T18:08:17;17.07;;;7.80;;
78160;SDS011;67404;49.896;9.268;2023-01-29T18:10:46;19.32;;;8.78;;
78160;SDS011;67404;49.896;9.268;2023-01-29T18:13:14;19.50;;;9.78;;
78160;SDS011;67404;49.896;9.268;2023-01-29T18:15:41;18.60;;;9.40;;
78160;SDS011;67404;49.896;9.268;2023-01-29T18:18:11;20.20;;;9.73;;
78160;SDS011;67404;49.896;9.268;2023-01-29T18:20:39;18.48;;;8.93;;
78160;SDS011;67404;49.896;9.268;2023-01-29T18:23:06;20.12;;;10.08;;
78160;SDS011;67404;49.896;9.268;2023-01-29T18:25:34;20.48;;;9.70;;
78160;SDS011;67404;49.896;9.268;2023-01-29T18:28:02;20.95;;;9.53;;
78160;SDS011;67404;49.896;9.268;2023-01-29T18:30:31;22.95;;;9.13;;
78160;SDS011;67404;49.896;9.268;2023-01-29T18:32:59;21.27;;;9.95;;
78160;SDS011;67404;49.896;9.268;2023-01-29T18:35:28;24.35;;;11.18;;
78160;SDS011;67404;49.896;9.268;2023-01-29T18:37:55;21.00;;;11.22;;
78160;SDS011;67404;49.896;9.268;2023-01-29T18:40:23;26.25;;;11.70;;
78160;SDS011;67404;49.896;9.268;2023-01-29T18:42:51;23.77;;;10.55;;
78160;SDS011;67404;49.896;9.268;2023-01-29T18:45:19;22.35;;;11.28;;
78160;SDS011;67404;49.896;9.268;2023-01-29T18:47:48;22.02;;;10.40;;
78160;SDS011;67404;49.896;9.268;2023-01-29T18:50:15;24.77;;;11.50;;
78160;SDS011;67404;49.896;9.268;2023-01-29T18:52:43;20.92;;;10.13;;
78160;SDS011;67404;49.896;9.268;2023-01-29T18:55:10;22.10;;;11.55;;
78160;SDS011;67404;49.896;9.268;2023-01-29T18:57:38;23.25;;;11.65;;
78160;SDS011;67404;49.896;9.268;2023-01-29T19:00:06;25.12;;;11.65;;
78160;SDS011;67404;49.896;9.268;2023-01-29T19:02:34;23.00;;;11.93;;
78160;SDS011;67404;49.896;9.268;2023-01-29T19:05:01;27.25;;;13.35;;
78160;SDS011;67404;49.896;9.268;2023-01-29T19:07:29;25.60;;;13.03;;
78160;SDS011;67404;49.896;9.268;2023-01-29T19:09:56;22.60;;;11.97;;
78160;SDS011;67404;49.896;9.268;2023-01-29T19:12:24;22.32;;;11.40;;
78160;SDS011;67404;49.896;9.268;2023-01-29T19:14:51;25.17;;;12.60;;
78160;SDS011;67404;49.896;9.268;2023-01-29T19:17:19;29.27;;;13.10;;
78160;SDS011;67404;49.896;9.268;2023-01-29T19:19:46;24.47;;;12.43;;
78160;SDS011;67404;49.896;9.268;2023-01-29T19:22:15;29.07;;;13.85;;
78160;SDS011;67404;49.896;9.268;2023-01-29T19:24:43;23.57;;;11.50;;
78160;SDS011;67404;49.896;9.268;2023-01-29T19:27:11;20.68;;;10.78;;
78160;SDS011;67404;49.896;9.268;2023-01-29T19:29:38;20.32;;;10.55;;
78160;SDS011;67404;49.896;9.268;2023-01-29T19:32:06;23.77;;;9.60;;
78160;SDS011;67404;49.896;9.268;2023-01-29T19:34:33;21.97;;;9.83;;
78160;SDS011;67404;49.896;9.268;2023-01-29T19:37:01;21.20;;;9.65;;
78160;SDS011;67404;49.896;9.268;2023-01-29T19:39:28;20.17;;;9.78;;
78160;SDS011;67404;49.896;9.268;2023-01-29T19:41:58;18.40;;;9.50;;
78160;SDS011;67404;49.896;9.268;2023-01-29T19:44:26;19.15;;;9.45;;
78160;SDS011;67404;49.896;9.268;2023-01-29T19:46:53;20.43;;;9.90;;
78160;SDS011;67404;49.896;9.268;2023-01-29T19:49:21;18.00;;;10.48;;
78160;SDS011;67404;49.896;9.268;2023-01-29T19:51:48;23.20;;;10.70;;
78160;SDS011;67404;49.896;9.268;2023-01-29T19:54:16;25.68;;;12.35;;
78160;SDS011;67404;49.896;9.268;2023-01-29T19:56:45;17.17;;;9.70;;
78160;SDS011;67404;49.896;9.268;2023-01-29T19:59:12;19.70;;;8.90;;
78160;SDS011;67404;49.896;9.268;2023-01-29T20:01:40;16.17;;;8.48;;
78160;SDS011;67404;49.896;9.268;2023-01-29T20:04:07;15.95;;;7.83;;
78160;SDS011;67404;49.896;9.268;2023-01-29T20:06:35;18.55;;;8.25;;
78160;SDS011;67404;49.896;9.268;2023-01-29T20:09:03;20.77;;;10.18;;
78160;SDS011;67404;49.896;9.268;2023-01-29T20:11:30;13.88;;;7.28;;
78160;SDS011;67404;49.896;9.268;2023-01-29T20:13:58;14.13;;;6.90;;
78160;SDS011;67404;49.896;9.268;2023-01-29T20:16:26;13.13;;;6.70;;
78160;SDS011;67404;49.896;9.268;2023-01-29T20:18:53;18.07;;;9.05;;
78160;SDS011;67404;49.896;9.268;2023-01-29T20:21:20;16.60;;;7.08;;
78160;SDS011;67404;49.896;9.268;2023-01-29T20:23:48;14.53;;;7.10;;
78160;SDS011;67404;49.896;9.268;2023-01-29T20:26:17;14.68;;;7.35;;
78160;SDS011;67404;49.896;9.268;2023-01-29T20:28:45;13.30;;;7.80;;
78160;SDS011;67404;49.896;9.268;2023-01-29T20:31:14;19.50;;;9.48;;
78160;SDS011;67404;49.896;9.268;2023-01-29T20:33:42;20.10;;;8.80;;
78160;SDS011;67404;49.896;9.268;2023-01-29T20:36:10;16.97;;;9.18;;
78160;SDS011;67404;49.896;9.268;2023-01-29T20:38:39;17.27;;;8.18;;
78160;SDS011;67404;49.896;9.268;2023-01-29T20:43:40;17.73;;;9.25;;
78160;SDS011;67404;49.896;9.268;2023-01-29T20:46:08;18.30;;;8.78;;
78160;SDS011;67404;49.896;9.268;2023-01-29T20:48:37;15.32;;;8.20;;
78160;SDS011;67404;49.896;9.268;2023-01-29T20:51:07;22.27;;;9.60;;
78160;SDS011;67404;49.896;9.268;2023-01-29T20:53:38;22.42;;;10.15;;
78160;SDS011;67404;49.896;9.268;2023-01-29T20:56:08;21.73;;;11.22;;
78160;SDS011;67404;49.896;9.268;2023-01-29T20:58:35;14.10;;;7.58;;
78160;SDS011;67404;49.896;9.268;2023-01-29T21:01:14;19.45;;;9.38;;
78160;SDS011;67404;49.896;9.268;2023-01-29T21:03:38;21.00;;;9.93;;
78160;SDS011;67404;49.896;9.268;2023-01-29T21:06:07;18.25;;;8.60;;
78160;SDS011;67404;49.896;9.268;2023-01-29T21:08:36;17.87;;;7.58;;
78160;SDS011;67404;49.896;9.268;2023-01-29T21:11:05;14.85;;;7.60;;
78160;SDS011;67404;49.896;9.268;2023-01-29T21:13:33;19.92;;;9.33;;
78160;SDS011;67404;49.896;9.268;2023-01-29T21:16:01;24.92;;;11.97;;
78160;SDS011;67404;49.896;9.268;2023-01-29T21:18:28;38.05;;;16.60;;
78160;SDS011;67404;49.896;9.268;2023-01-29T21:20:56;21.05;;;10.20;;
78160;SDS011;67404;49.896;9.268;2023-01-29T21:23:24;14.38;;;7.33;;
78160;SDS011;67404;49.896;9.268;2023-01-29T21:25:51;15.25;;;7.47;;
78160;SDS011;67404;49.896;9.268;2023-01-29T21:28:19;20.48;;;9.93;;
78160;SDS011;67404;49.896;9.268;2023-01-29T21:30:46;14.00;;;7.28;;
78160;SDS011;67404;49.896;9.268;2023-01-29T21:33:14;15.00;;;7.97;;
78160;SDS011;67404;49.896;9.268;2023-01-29T21:35:41;20.43;;;9.30;;
78160;SDS011;67404;49.896;9.268;2023-01-29T21:38:09;20.43;;;11.15;;
78160;SDS011;67404;49.896;9.268;2023-01-29T21:40:36;17.40;;;8.35;;
78160;SDS011;67404;49.896;9.268;2023-01-29T21:43:03;14.98;;;8.08;;
78160;SDS011;67404;49.896;9.268;2023-01-29T21:45:37;18.02;;;7.97;;
78160;SDS011;67404;49.896;9.268;2023-01-29T21:48:06;15.30;;;7.40;;
78160;SDS011;67404;49.896;9.268;2023-01-29T21:50:34;16.45;;;7.83;;
78160;SDS011;67404;49.896;9.268;2023-01-29T21:53:03;14.35;;;7.97;;
78160;SDS011;67404;49.896;9.268;2023-01-29T21:55:30;20.00;;;9.05;;
78160;SDS011;67404;49.896;9.268;2023-01-29T21:57:58;15.75;;;7.62;;
78160;SDS011;67404;49.896;9.268;2023-01-29T22:00:26;15.08;;;7.55;;
78160;SDS011;67404;49.896;9.268;2023-01-29T22:02:54;15.35;;;7.72;;
78160;SDS011;67404;49.896;9.268;2023-01-29T22:05:21;15.93;;;7.78;;
78160;SDS011;67404;49.896;9.268;2023-01-29T22:07:49;14.65;;;7.20;;
78160;SDS011;67404;49.896;9.268;2023-01-29T22:10:16;17.73;;;7.65;;
78160;SDS011;67404;49.896;9.268;2023-01-29T22:12:44;18.75;;;8.75;;
78160;SDS011;67404;49.896;9.268;2023-01-29T22:15:11;18.10;;;8.90;;
78160;SDS011;67404;49.896;9.268;2023-01-29T22:17:40;18.95;;;9.50;;
78160;SDS011;67404;49.896;9.268;2023-01-29T22:20:13;19.17;;;8.78;;
78160;SDS011;67404;49.896;9.268;2023-01-29T22:22:38;19.62;;;9.35;;
78160;SDS011;67404;49.896;9.268;2023-01-29T22:25:06;15.88;;;7.47;;
78160;SDS011;67404;49.896;9.268;2023-01-29T22:27:34;17.48;;;8.20;;
78160;SDS011;67404;49.896;9.268;2023-01-29T22:30:03;16.37;;;8.05;;
78160;SDS011;67404;49.896;9.268;2023-01-29T22:32:31;17.52;;;8.70;;
78160;SDS011;67404;49.896;9.268;2023-01-29T22:34:59;14.20;;;7.90;;
78160;SDS011;67404;49.896;9.268;2023-01-29T22:37:26;18.55;;;8.48;;
78160;SDS011;67404;49.896;9.268;2023-01-29T22:39:54;21.45;;;9.18;;
78160;SDS011;67404;49.896;9.268;2023-01-29T22:42:22;26.35;;;13.48;;
78160;SDS011;67404;49.896;9.268;2023-01-29T22:44:49;15.53;;;8.23;;
78160;SDS011;67404;49.896;9.268;2023-01-29T22:47:17;16.55;;;9.00;;
78160;SDS011;67404;49.896;9.268;2023-01-29T22:49:44;19.82;;;9.43;;
78160;SDS011;67404;49.896;9.268;2023-01-29T22:52:13;16.50;;;7.95;;
78160;SDS011;67404;49.896;9.268;2023-01-29T22:54:41;14.58;;;7.70;;
78160;SDS011;67404;49.896;9.268;2023-01-29T22:57:09;15.40;;;7.83;;
78160;SDS011;67404;49.896;9.268;2023-01-29T22:59:38;15.80;;;8.33;;
78160;SDS011;67404;49.896;9.268;2023-01-29T23:02:06;13.05;;;7.35;;
78160;SDS011;67404;49.896;9.268;2023-01-29T23:04:37;14.55;;;7.97;;
78160;SDS011;67404;49.896;9.268;2023-01-29T23:07:04;13.85;;;7.10;;
78160;SDS011;67404;49.896;9.268;2023-01-29T23:09:31;16.65;;;8.45;;
78160;SDS011;67404;49.896;9.268;2023-01-29T23:11:59;15.25;;;6.87;;
78160;SDS011;67404;49.896;9.268;2023-01-29T23:14:26;16.10;;;7.83;;
78160;SDS011;67404;49.896;9.268;2023-01-29T23:16:54;15.32;;;7.20;;
78160;SDS011;67404;49.896;9.268;2023-01-29T23:19:21;17.05;;;7.60;;
78160;SDS011;67404;49.896;9.268;2023-01-29T23:21:49;14.23;;;6.83;;
78160;SDS011;67404;49.896;9.268;2023-01-29T23:24:16;13.95;;;6.83;;
78160;SDS011;67404;49.896;9.268;2023-01-29T23:26:44;13.22;;;7.08;;
78160;SDS011;67404;49.896;9.268;2023-01-29T23:29:29;14.05;;;7.95;;
78160;SDS011;67404;49.896;9.268;2023-01-29T23:31:57;15.68;;;7.47;;
78160;SDS011;67404;49.896;9.268;2023-01-29T23:34:24;16.52;;;7.17;;
78160;SDS011;67404;49.896;9.268;2023-01-29T23:36:51;14.13;;;7.95;;
78160;SDS011;67404;49.896;9.268;2023-01-29T23:39:19;14.35;;;7.50;;
78160;SDS011;67404;49.896;9.268;2023-01-29T23:41:46;17.05;;;7.97;;
78160;SDS011;67404;49.896;9.268;2023-01-29T23:44:14;15.48;;;6.85;;
78160;SDS011;67404;49.896;9.268;2023-01-29T23:46:41;14.60;;;7.67;;
78160;SDS011;67404;49.896;9.268;2023-01-29T23:49:09;14.98;;;7.58;;
78160;SDS011;67404;49.896;9.268;2023-01-29T23:51:37;16.15;;;7.55;;
78160;SDS011;67404;49.896;9.268;2023-01-29T23:54:05;16.67;;;7.87;;
78160;SDS011;67404;49.896;9.268;2023-01-29T23:56:32;16.75;;;7.87;;
78160;SDS011;67404;49.896;9.268;2023-01-29T23:58:59;14.63;;;7.33;;
